sensor_id;sensor_type;location;lat;lon;timestamp;P1;durP1;ratioP1;P2;durP2;ratioP2
79670;SDS011;69137;50.878;8.050;2023-04-16T00:10:18;14.90;;;7.65;;
79670;SDS011;69137;50.878;8.050;2023-04-16T00:13:15;14.07;;;8.27;;
79670;SDS011;69137;50.878;8.050;2023-04-16T00:15:40;17.45;;;9.18;;
79670;SDS011;69137;50.878;8.050;2023-04-16T00:20:34;15.82;;;8.68;;
79670;SDS011;69137;50.878;8.050;2023-04-16T00:23:00;12.25;;;8.15;;
79670;SDS011;69137;50.878;8.050;2023-04-16T00:25:25;15.95;;;8.63;;
79670;SDS011;69137;50.878;8.050;2023-04-16T00:27:50;15.98;;;9.38;;
79670;SDS011;69137;50.878;8.050;2023-04-16T00:30:16;18.33;;;10.20;;
79670;SDS011;69137;50.878;8.050;2023-04-16T00:32:41;16.38;;;9.20;;
79670;SDS011;69137;50.878;8.050;2023-04-16T00:35:07;14.82;;;8.77;;
79670;SDS011;69137;50.878;8.050;2023-04-16T00:37:33;15.32;;;9.57;;
79670;SDS011;69137;50.878;8.050;2023-04-16T00:39:58;14.80;;;8.90;;
79670;SDS011;69137;50.878;8.050;2023-04-16T00:42:23;18.23;;;10.00;;
79670;SDS011;69137;50.878;8.050;2023-04-16T00:44:49;20.08;;;9.93;;
79670;SDS011;69137;50.878;8.050;2023-04-16T00:47:15;18.20;;;8.70;;
79670;SDS011;69137;50.878;8.050;2023-04-16T00:49:40;17.08;;;8.95;;
79670;SDS011;69137;50.878;8.050;2023-04-16T00:52:06;14.32;;;9.13;;
79670;SDS011;69137;50.878;8.050;2023-04-16T00:54:31;15.50;;;8.52;;
79670;SDS011;69137;50.878;8.050;2023-04-16T00:56:57;17.35;;;10.57;;
79670;SDS011;69137;50.878;8.050;2023-04-16T00:59:26;20.45;;;9.90;;
79670;SDS011;69137;50.878;8.050;2023-04-16T01:01:51;14.65;;;8.55;;
79670;SDS011;69137;50.878;8.050;2023-04-16T01:04:16;14.27;;;8.45;;
79670;SDS011;69137;50.878;8.050;2023-04-16T01:06:42;13.82;;;8.75;;
79670;SDS011;69137;50.878;8.050;2023-04-16T01:09:08;15.70;;;8.68;;
79670;SDS011;69137;50.878;8.050;2023-04-16T01:11:35;13.95;;;8.52;;
79670;SDS011;69137;50.878;8.050;2023-04-16T01:14:09;12.40;;;7.80;;
79670;SDS011;69137;50.878;8.050;2023-04-16T01:16:35;13.98;;;9.18;;
79670;SDS011;69137;50.878;8.050;2023-04-16T01:19:00;12.57;;;8.50;;
79670;SDS011;69137;50.878;8.050;2023-04-16T01:21:26;12.93;;;8.10;;
79670;SDS011;69137;50.878;8.050;2023-04-16T01:23:51;15.48;;;8.65;;
79670;SDS011;69137;50.878;8.050;2023-04-16T01:26:16;12.95;;;7.55;;
79670;SDS011;69137;50.878;8.050;2023-04-16T01:28:42;14.00;;;8.18;;
79670;SDS011;69137;50.878;8.050;2023-04-16T01:31:07;13.80;;;8.80;;
79670;SDS011;69137;50.878;8.050;2023-04-16T01:33:33;12.85;;;7.75;;
79670;SDS011;69137;50.878;8.050;2023-04-16T01:35:58;12.40;;;7.90;;
79670;SDS011;69137;50.878;8.050;2023-04-16T01:38:23;13.25;;;7.97;;
79670;SDS011;69137;50.878;8.050;2023-04-16T01:40:49;11.50;;;7.07;;
79670;SDS011;69137;50.878;8.050;2023-04-16T01:43:14;12.07;;;7.13;;
79670;SDS011;69137;50.878;8.050;2023-04-16T01:45:40;13.45;;;7.90;;
79670;SDS011;69137;50.878;8.050;2023-04-16T01:48:05;11.48;;;7.07;;
79670;SDS011;69137;50.878;8.050;2023-04-16T01:50:31;12.30;;;7.15;;
79670;SDS011;69137;50.878;8.050;2023-04-16T01:52:57;14.05;;;7.55;;
79670;SDS011;69137;50.878;8.050;2023-04-16T01:55:25;9.88;;;5.93;;
79670;SDS011;69137;50.878;8.050;2023-04-16T01:57:50;10.98;;;6.90;;
79670;SDS011;69137;50.878;8.050;2023-04-16T02:00:16;12.25;;;7.93;;
79670;SDS011;69137;50.878;8.050;2023-04-16T02:02:41;8.18;;;5.55;;
79670;SDS011;69137;50.878;8.050;2023-04-16T02:05:07;11.05;;;6.57;;
79670;SDS011;69137;50.878;8.050;2023-04-16T02:10:00;8.83;;;5.03;;
79670;SDS011;69137;50.878;8.050;2023-04-16T02:12:26;12.40;;;5.95;;
79670;SDS011;69137;50.878;8.050;2023-04-16T02:14:51;10.52;;;5.97;;
79670;SDS011;69137;50.878;8.050;2023-04-16T02:17:17;9.05;;;5.35;;
79670;SDS011;69137;50.878;8.050;2023-04-16T02:19:42;9.60;;;5.25;;
79670;SDS011;69137;50.878;8.050;2023-04-16T02:22:08;10.88;;;6.18;;
79670;SDS011;69137;50.878;8.050;2023-04-16T02:24:35;10.10;;;5.47;;
79670;SDS011;69137;50.878;8.050;2023-04-16T02:27:01;8.60;;;4.95;;
79670;SDS011;69137;50.878;8.050;2023-04-16T02:29:26;8.60;;;4.80;;
79670;SDS011;69137;50.878;8.050;2023-04-16T02:31:52;6.90;;;4.57;;
79670;SDS011;69137;50.878;8.050;2023-04-16T02:34:17;9.90;;;5.15;;
79670;SDS011;69137;50.878;8.050;2023-04-16T02:36:43;8.23;;;4.90;;
79670;SDS011;69137;50.878;8.050;2023-04-16T02:39:08;8.65;;;5.25;;
79670;SDS011;69137;50.878;8.050;2023-04-16T02:41:34;11.48;;;6.20;;
79670;SDS011;69137;50.878;8.050;2023-04-16T02:44:00;10.52;;;5.70;;
79670;SDS011;69137;50.878;8.050;2023-04-16T02:46:25;11.07;;;5.57;;
79670;SDS011;69137;50.878;8.050;2023-04-16T02:48:50;13.48;;;6.57;;
79670;SDS011;69137;50.878;8.050;2023-04-16T02:51:16;10.65;;;6.05;;
79670;SDS011;69137;50.878;8.050;2023-04-16T02:53:41;10.20;;;6.20;;
79670;SDS011;69137;50.878;8.050;2023-04-16T02:58:35;11.25;;;5.82;;
79670;SDS011;69137;50.878;8.050;2023-04-16T03:01:01;10.27;;;6.70;;
79670;SDS011;69137;50.878;8.050;2023-04-16T03:03:26;16.75;;;6.90;;
79670;SDS011;69137;50.878;8.050;2023-04-16T03:05:51;14.60;;;7.43;;
79670;SDS011;69137;50.878;8.050;2023-04-16T03:08:17;13.23;;;6.78;;
79670;SDS011;69137;50.878;8.050;2023-04-16T03:10:42;11.20;;;6.53;;
79670;SDS011;69137;50.878;8.050;2023-04-16T03:13:08;13.25;;;7.95;;
79670;SDS011;69137;50.878;8.050;2023-04-16T03:15:33;12.85;;;7.32;;
79670;SDS011;69137;50.878;8.050;2023-04-16T03:17:59;12.90;;;7.57;;
79670;SDS011;69137;50.878;8.050;2023-04-16T03:20:24;13.13;;;8.00;;
79670;SDS011;69137;50.878;8.050;2023-04-16T03:22:50;13.40;;;7.55;;
79670;SDS011;69137;50.878;8.050;2023-04-16T03:25:18;12.43;;;7.93;;
79670;SDS011;69137;50.878;8.050;2023-04-16T03:27:44;14.02;;;7.43;;
79670;SDS011;69137;50.878;8.050;2023-04-16T03:30:10;18.08;;;8.48;;
79670;SDS011;69137;50.878;8.050;2023-04-16T03:32:36;15.73;;;8.73;;
79670;SDS011;69137;50.878;8.050;2023-04-16T03:35:03;14.65;;;8.00;;
79670;SDS011;69137;50.878;8.050;2023-04-16T03:37:32;16.55;;;9.38;;
79670;SDS011;69137;50.878;8.050;2023-04-16T03:39:58;14.73;;;9.02;;
79670;SDS011;69137;50.878;8.050;2023-04-16T03:42:23;14.55;;;9.07;;
79670;SDS011;69137;50.878;8.050;2023-04-16T03:44:49;12.07;;;7.80;;
79670;SDS011;69137;50.878;8.050;2023-04-16T03:47:14;15.95;;;8.40;;
79670;SDS011;69137;50.878;8.050;2023-04-16T03:49:40;15.32;;;8.85;;
79670;SDS011;69137;50.878;8.050;2023-04-16T03:52:05;17.15;;;8.85;;
79670;SDS011;69137;50.878;8.050;2023-04-16T03:54:31;16.75;;;9.15;;
79670;SDS011;69137;50.878;8.050;2023-04-16T03:56:59;17.55;;;9.35;;
79670;SDS011;69137;50.878;8.050;2023-04-16T04:01:53;16.03;;;8.00;;
79670;SDS011;69137;50.878;8.050;2023-04-16T04:08:53;15.20;;;8.63;;
79670;SDS011;69137;50.878;8.050;2023-04-16T04:11:49;15.35;;;9.05;;
79670;SDS011;69137;50.878;8.050;2023-04-16T04:14:14;15.75;;;9.43;;
79670;SDS011;69137;50.878;8.050;2023-04-16T04:16:40;15.55;;;9.65;;
79670;SDS011;69137;50.878;8.050;2023-04-16T04:19:05;15.27;;;9.63;;
79670;SDS011;69137;50.878;8.050;2023-04-16T04:21:31;15.88;;;10.13;;
79670;SDS011;69137;50.878;8.050;2023-04-16T04:23:56;16.40;;;10.05;;
79670;SDS011;69137;50.878;8.050;2023-04-16T04:26:22;14.00;;;9.18;;
79670;SDS011;69137;50.878;8.050;2023-04-16T04:28:47;18.33;;;9.63;;
79670;SDS011;69137;50.878;8.050;2023-04-16T04:31:12;17.23;;;9.60;;
79670;SDS011;69137;50.878;8.050;2023-04-16T04:37:52;16.15;;;8.57;;
79670;SDS011;69137;50.878;8.050;2023-04-16T04:41:25;15.85;;;8.73;;
79670;SDS011;69137;50.878;8.050;2023-04-16T04:44:14;12.75;;;8.35;;
79670;SDS011;69137;50.878;8.050;2023-04-16T04:46:39;14.30;;;9.10;;
79670;SDS011;69137;50.878;8.050;2023-04-16T04:49:22;15.40;;;8.77;;
79670;SDS011;69137;50.878;8.050;2023-04-16T05:06:06;11.70;;;7.55;;
79670;SDS011;69137;50.878;8.050;2023-04-16T05:09:31;14.88;;;8.55;;
79670;SDS011;69137;50.878;8.050;2023-04-16T05:22:43;17.27;;;9.18;;
79670;SDS011;69137;50.878;8.050;2023-04-16T05:25:53;18.85;;;9.85;;
79670;SDS011;69137;50.878;8.050;2023-04-16T05:31:39;16.42;;;9.48;;
79670;SDS011;69137;50.878;8.050;2023-04-16T05:34:05;15.68;;;9.43;;
79670;SDS011;69137;50.878;8.050;2023-04-16T05:39:25;19.25;;;9.90;;
79670;SDS011;69137;50.878;8.050;2023-04-16T05:41:51;19.13;;;11.02;;
79670;SDS011;69137;50.878;8.050;2023-04-16T05:44:18;18.35;;;11.02;;
79670;SDS011;69137;50.878;8.050;2023-04-16T05:46:44;17.55;;;11.40;;
79670;SDS011;69137;50.878;8.050;2023-04-16T05:49:11;17.67;;;11.00;;
79670;SDS011;69137;50.878;8.050;2023-04-16T05:51:37;19.13;;;11.18;;
79670;SDS011;69137;50.878;8.050;2023-04-16T05:54:02;23.85;;;12.40;;
79670;SDS011;69137;50.878;8.050;2023-04-16T05:56:27;18.45;;;10.90;;
79670;SDS011;69137;50.878;8.050;2023-04-16T05:58:53;21.90;;;11.10;;
79670;SDS011;69137;50.878;8.050;2023-04-16T06:01:18;29.70;;;11.85;;
79670;SDS011;69137;50.878;8.050;2023-04-16T06:03:45;36.20;;;20.25;;
79670;SDS011;69137;50.878;8.050;2023-04-16T06:06:10;38.60;;;21.27;;
79670;SDS011;69137;50.878;8.050;2023-04-16T06:08:36;24.70;;;14.23;;
79670;SDS011;69137;50.878;8.050;2023-04-16T06:11:02;30.15;;;17.73;;
79670;SDS011;69137;50.878;8.050;2023-04-16T06:13:27;39.22;;;20.67;;
79670;SDS011;69137;50.878;8.050;2023-04-16T06:15:53;30.90;;;17.27;;
79670;SDS011;69137;50.878;8.050;2023-04-16T06:18:18;30.05;;;16.52;;
79670;SDS011;69137;50.878;8.050;2023-04-16T06:20:44;29.00;;;16.15;;
79670;SDS011;69137;50.878;8.050;2023-04-16T06:23:09;27.63;;;14.52;;
79670;SDS011;69137;50.878;8.050;2023-04-16T06:25:35;25.40;;;15.00;;
79670;SDS011;69137;50.878;8.050;2023-04-16T06:28:00;22.00;;;13.05;;
79670;SDS011;69137;50.878;8.050;2023-04-16T06:30:25;26.38;;;13.57;;
79670;SDS011;69137;50.878;8.050;2023-04-16T06:32:51;20.73;;;11.63;;
79670;SDS011;69137;50.878;8.050;2023-04-16T06:35:17;24.30;;;13.90;;
79670;SDS011;69137;50.878;8.050;2023-04-16T06:37:44;29.80;;;13.45;;
79670;SDS011;69137;50.878;8.050;2023-04-16T06:40:10;24.67;;;13.80;;
79670;SDS011;69137;50.878;8.050;2023-04-16T06:42:36;23.15;;;13.07;;
79670;SDS011;69137;50.878;8.050;2023-04-16T06:45:01;24.00;;;13.77;;
79670;SDS011;69137;50.878;8.050;2023-04-16T06:47:26;21.98;;;13.55;;
79670;SDS011;69137;50.878;8.050;2023-04-16T06:49:52;25.05;;;14.93;;
79670;SDS011;69137;50.878;8.050;2023-04-16T06:52:17;22.67;;;12.75;;
79670;SDS011;69137;50.878;8.050;2023-04-16T06:54:43;22.13;;;13.25;;
79670;SDS011;69137;50.878;8.050;2023-04-16T06:57:08;24.27;;;13.68;;
79670;SDS011;69137;50.878;8.050;2023-04-16T06:59:34;24.15;;;12.98;;
79670;SDS011;69137;50.878;8.050;2023-04-16T07:01:59;22.02;;;12.70;;
79670;SDS011;69137;50.878;8.050;2023-04-16T07:04:25;24.98;;;15.05;;
79670;SDS011;69137;50.878;8.050;2023-04-16T07:06:50;22.95;;;13.07;;
79670;SDS011;69137;50.878;8.050;2023-04-16T07:09:15;22.02;;;12.75;;
79670;SDS011;69137;50.878;8.050;2023-04-16T07:11:44;24.40;;;11.63;;
79670;SDS011;69137;50.878;8.050;2023-04-16T07:14:09;20.15;;;10.38;;
79670;SDS011;69137;50.878;8.050;2023-04-16T07:16:35;25.88;;;14.25;;
79670;SDS011;69137;50.878;8.050;2023-04-16T07:19:01;27.00;;;12.02;;
79670;SDS011;69137;50.878;8.050;2023-04-16T07:21:27;23.55;;;12.77;;
79670;SDS011;69137;50.878;8.050;2023-04-16T07:23:53;25.25;;;12.55;;
79670;SDS011;69137;50.878;8.050;2023-04-16T07:26:19;21.50;;;11.77;;
79670;SDS011;69137;50.878;8.050;2023-04-16T07:28:44;18.38;;;11.43;;
79670;SDS011;69137;50.878;8.050;2023-04-16T07:31:10;24.30;;;11.57;;
79670;SDS011;69137;50.878;8.050;2023-04-16T07:33:38;21.83;;;12.05;;
79670;SDS011;69137;50.878;8.050;2023-04-16T07:38:29;21.42;;;11.25;;
79670;SDS011;69137;50.878;8.050;2023-04-16T07:40:55;22.27;;;13.13;;
79670;SDS011;69137;50.878;8.050;2023-04-16T07:43:20;22.92;;;13.40;;
79670;SDS011;69137;50.878;8.050;2023-04-16T07:45:46;24.60;;;14.20;;
79670;SDS011;69137;50.878;8.050;2023-04-16T07:48:11;27.35;;;14.25;;
79670;SDS011;69137;50.878;8.050;2023-04-16T07:50:37;31.35;;;15.15;;
79670;SDS011;69137;50.878;8.050;2023-04-16T07:53:02;23.40;;;13.45;;
79670;SDS011;69137;50.878;8.050;2023-04-16T07:55:29;29.05;;;15.05;;
79670;SDS011;69137;50.878;8.050;2023-04-16T07:57:55;29.08;;;15.18;;
79670;SDS011;69137;50.878;8.050;2023-04-16T08:00:20;28.02;;;14.98;;
79670;SDS011;69137;50.878;8.050;2023-04-16T08:02:46;26.23;;;15.52;;
79670;SDS011;69137;50.878;8.050;2023-04-16T08:05:11;30.02;;;15.98;;
79670;SDS011;69137;50.878;8.050;2023-04-16T08:07:37;31.63;;;15.60;;
79670;SDS011;69137;50.878;8.050;2023-04-16T08:10:02;27.35;;;15.43;;
79670;SDS011;69137;50.878;8.050;2023-04-16T08:12:28;28.17;;;14.98;;
79670;SDS011;69137;50.878;8.050;2023-04-16T08:14:53;23.50;;;14.15;;
79670;SDS011;69137;50.878;8.050;2023-04-16T08:17:19;25.10;;;15.15;;
79670;SDS011;69137;50.878;8.050;2023-04-16T08:19:44;28.23;;;14.10;;
79670;SDS011;69137;50.878;8.050;2023-04-16T08:22:13;29.77;;;16.15;;
79670;SDS011;69137;50.878;8.050;2023-04-16T08:24:39;28.95;;;15.75;;
79670;SDS011;69137;50.878;8.050;2023-04-16T08:27:04;28.10;;;15.07;;
79670;SDS011;69137;50.878;8.050;2023-04-16T08:29:30;26.40;;;14.95;;
79670;SDS011;69137;50.878;8.050;2023-04-16T08:31:57;28.42;;;15.45;;
79670;SDS011;69137;50.878;8.050;2023-04-16T08:34:23;27.80;;;14.13;;
79670;SDS011;69137;50.878;8.050;2023-04-16T08:36:48;25.60;;;14.52;;
79670;SDS011;69137;50.878;8.050;2023-04-16T08:41:43;27.08;;;14.95;;
79670;SDS011;69137;50.878;8.050;2023-04-16T08:46:43;24.65;;;13.18;;
79670;SDS011;69137;50.878;8.050;2023-04-16T08:49:10;27.60;;;15.57;;
79670;SDS011;69137;50.878;8.050;2023-04-16T08:51:42;28.67;;;15.38;;
79670;SDS011;69137;50.878;8.050;2023-04-16T08:54:11;30.70;;;15.85;;
79670;SDS011;69137;50.878;8.050;2023-04-16T08:56:41;31.35;;;15.90;;
79670;SDS011;69137;50.878;8.050;2023-04-16T08:59:07;26.48;;;14.90;;
79670;SDS011;69137;50.878;8.050;2023-04-16T09:01:34;28.95;;;14.48;;
79670;SDS011;69137;50.878;8.050;2023-04-16T09:04:00;24.05;;;15.27;;
79670;SDS011;69137;50.878;8.050;2023-04-16T09:06:27;24.17;;;14.57;;
79670;SDS011;69137;50.878;8.050;2023-04-16T09:08:53;25.90;;;14.70;;
79670;SDS011;69137;50.878;8.050;2023-04-16T09:11:19;26.50;;;15.43;;
79670;SDS011;69137;50.878;8.050;2023-04-16T09:13:46;26.85;;;14.25;;
79670;SDS011;69137;50.878;8.050;2023-04-16T09:16:12;26.30;;;14.90;;
79670;SDS011;69137;50.878;8.050;2023-04-16T09:18:38;29.33;;;16.40;;
79670;SDS011;69137;50.878;8.050;2023-04-16T09:21:04;22.98;;;14.55;;
79670;SDS011;69137;50.878;8.050;2023-04-16T09:23:29;26.23;;;15.32;;
79670;SDS011;69137;50.878;8.050;2023-04-16T09:25:58;32.65;;;15.02;;
79670;SDS011;69137;50.878;8.050;2023-04-16T09:28:40;27.23;;;16.90;;
79670;SDS011;69137;50.878;8.050;2023-04-16T09:31:07;23.60;;;14.13;;
79670;SDS011;69137;50.878;8.050;2023-04-16T09:33:43;25.00;;;15.35;;
79670;SDS011;69137;50.878;8.050;2023-04-16T09:36:24;25.65;;;16.58;;
79670;SDS011;69137;50.878;8.050;2023-04-16T09:38:52;25.73;;;14.65;;
79670;SDS011;69137;50.878;8.050;2023-04-16T09:41:18;28.15;;;15.45;;
79670;SDS011;69137;50.878;8.050;2023-04-16T09:44:09;26.95;;;15.98;;
79670;SDS011;69137;50.878;8.050;2023-04-16T09:46:34;23.80;;;15.23;;
79670;SDS011;69137;50.878;8.050;2023-04-16T09:49:11;22.73;;;14.00;;
79670;SDS011;69137;50.878;8.050;2023-04-16T09:51:44;25.63;;;14.50;;
79670;SDS011;69137;50.878;8.050;2023-04-16T09:54:12;23.95;;;14.85;;
79670;SDS011;69137;50.878;8.050;2023-04-16T09:56:41;27.88;;;16.20;;
79670;SDS011;69137;50.878;8.050;2023-04-16T09:59:15;24.10;;;14.73;;
79670;SDS011;69137;50.878;8.050;2023-04-16T10:01:45;24.60;;;14.95;;
79670;SDS011;69137;50.878;8.050;2023-04-16T10:04:11;21.67;;;14.27;;
79670;SDS011;69137;50.878;8.050;2023-04-16T10:06:37;23.58;;;12.80;;
79670;SDS011;69137;50.878;8.050;2023-04-16T10:09:04;23.77;;;15.32;;
79670;SDS011;69137;50.878;8.050;2023-04-16T10:11:31;23.35;;;14.07;;
79670;SDS011;69137;50.878;8.050;2023-04-16T10:13:57;22.88;;;14.95;;
79670;SDS011;69137;50.878;8.050;2023-04-16T10:16:23;30.00;;;15.57;;
79670;SDS011;69137;50.878;8.050;2023-04-16T10:18:48;23.63;;;13.95;;
79670;SDS011;69137;50.878;8.050;2023-04-16T10:21:14;24.48;;;15.57;;
79670;SDS011;69137;50.878;8.050;2023-04-16T10:23:41;26.48;;;15.50;;
79670;SDS011;69137;50.878;8.050;2023-04-16T10:26:11;25.33;;;14.82;;
79670;SDS011;69137;50.878;8.050;2023-04-16T10:28:37;28.85;;;14.77;;
79670;SDS011;69137;50.878;8.050;2023-04-16T10:31:04;24.60;;;15.10;;
79670;SDS011;69137;50.878;8.050;2023-04-16T10:33:35;26.40;;;14.43;;
79670;SDS011;69137;50.878;8.050;2023-04-16T10:38:33;28.15;;;14.35;;
79670;SDS011;69137;50.878;8.050;2023-04-16T10:41:02;30.10;;;16.40;;
79670;SDS011;69137;50.878;8.050;2023-04-16T10:43:32;27.08;;;13.20;;
79670;SDS011;69137;50.878;8.050;2023-04-16T10:48:49;19.42;;;11.45;;
79670;SDS011;69137;50.878;8.050;2023-04-16T10:51:24;22.90;;;14.45;;
79670;SDS011;69137;50.878;8.050;2023-04-16T10:53:52;24.33;;;13.63;;
79670;SDS011;69137;50.878;8.050;2023-04-16T10:56:25;24.15;;;14.02;;
79670;SDS011;69137;50.878;8.050;2023-04-16T10:58:52;23.45;;;13.88;;
79670;SDS011;69137;50.878;8.050;2023-04-16T11:01:22;25.33;;;14.82;;
79670;SDS011;69137;50.878;8.050;2023-04-16T11:03:59;26.00;;;14.73;;
79670;SDS011;69137;50.878;8.050;2023-04-16T11:12:06;25.95;;;14.25;;
79670;SDS011;69137;50.878;8.050;2023-04-16T11:14:35;24.77;;;14.50;;
79670;SDS011;69137;50.878;8.050;2023-04-16T11:17:02;21.38;;;12.73;;
79670;SDS011;69137;50.878;8.050;2023-04-16T11:19:27;23.25;;;13.52;;
79670;SDS011;69137;50.878;8.050;2023-04-16T11:21:53;23.90;;;14.10;;
79670;SDS011;69137;50.878;8.050;2023-04-16T11:24:22;21.83;;;13.15;;
79670;SDS011;69137;50.878;8.050;2023-04-16T11:26:50;21.83;;;13.50;;
79670;SDS011;69137;50.878;8.050;2023-04-16T11:29:15;23.05;;;13.13;;
79670;SDS011;69137;50.878;8.050;2023-04-16T11:31:41;18.15;;;12.48;;
79670;SDS011;69137;50.878;8.050;2023-04-16T11:34:07;24.40;;;13.23;;
79670;SDS011;69137;50.878;8.050;2023-04-16T11:36:53;23.63;;;13.93;;
79670;SDS011;69137;50.878;8.050;2023-04-16T11:39:18;23.23;;;13.20;;
79670;SDS011;69137;50.878;8.050;2023-04-16T11:41:44;24.27;;;13.18;;
79670;SDS011;69137;50.878;8.050;2023-04-16T11:47:07;23.05;;;11.73;;
79670;SDS011;69137;50.878;8.050;2023-04-16T11:49:33;18.23;;;12.93;;
79670;SDS011;69137;50.878;8.050;2023-04-16T11:51:58;18.27;;;11.77;;
79670;SDS011;69137;50.878;8.050;2023-04-16T11:54:24;15.50;;;10.82;;
79670;SDS011;69137;50.878;8.050;2023-04-16T11:56:50;19.63;;;11.00;;
79670;SDS011;69137;50.878;8.050;2023-04-16T12:01:47;18.42;;;10.27;;
79670;SDS011;69137;50.878;8.050;2023-04-16T12:04:21;17.73;;;10.73;;
79670;SDS011;69137;50.878;8.050;2023-04-16T12:07:03;17.25;;;10.43;;
79670;SDS011;69137;50.878;8.050;2023-04-16T12:09:30;15.68;;;10.25;;
79670;SDS011;69137;50.878;8.050;2023-04-16T12:11:56;14.88;;;9.80;;
79670;SDS011;69137;50.878;8.050;2023-04-16T12:14:21;19.38;;;12.02;;
79670;SDS011;69137;50.878;8.050;2023-04-16T12:16:47;17.08;;;11.32;;
79670;SDS011;69137;50.878;8.050;2023-04-16T12:19:13;19.23;;;12.45;;
79670;SDS011;69137;50.878;8.050;2023-04-16T12:21:42;17.60;;;9.98;;
79670;SDS011;69137;50.878;8.050;2023-04-16T12:24:10;18.60;;;11.50;;
79670;SDS011;69137;50.878;8.050;2023-04-16T12:26:44;20.05;;;12.13;;
79670;SDS011;69137;50.878;8.050;2023-04-16T12:29:20;16.13;;;10.98;;
79670;SDS011;69137;50.878;8.050;2023-04-16T12:31:47;20.63;;;12.40;;
79670;SDS011;69137;50.878;8.050;2023-04-16T12:34:14;19.17;;;11.95;;
79670;SDS011;69137;50.878;8.050;2023-04-16T12:36:40;20.58;;;12.13;;
79670;SDS011;69137;50.878;8.050;2023-04-16T12:39:06;20.83;;;12.27;;
79670;SDS011;69137;50.878;8.050;2023-04-16T12:41:34;24.67;;;11.40;;
79670;SDS011;69137;50.878;8.050;2023-04-16T12:44:05;20.77;;;12.02;;
79670;SDS011;69137;50.878;8.050;2023-04-16T12:46:40;23.40;;;12.45;;
79670;SDS011;69137;50.878;8.050;2023-04-16T12:49:09;23.67;;;13.13;;
79670;SDS011;69137;50.878;8.050;2023-04-16T12:51:35;20.58;;;12.13;;
79670;SDS011;69137;50.878;8.050;2023-04-16T12:54:03;18.58;;;11.88;;
79670;SDS011;69137;50.878;8.050;2023-04-16T12:56:29;20.10;;;12.80;;
79670;SDS011;69137;50.878;8.050;2023-04-16T12:58:55;18.73;;;11.48;;
79670;SDS011;69137;50.878;8.050;2023-04-16T13:01:21;21.08;;;12.52;;
79670;SDS011;69137;50.878;8.050;2023-04-16T13:03:47;17.23;;;11.63;;
79670;SDS011;69137;50.878;8.050;2023-04-16T13:06:14;13.23;;;9.07;;
79670;SDS011;69137;50.878;8.050;2023-04-16T13:08:41;18.48;;;12.02;;
79670;SDS011;69137;50.878;8.050;2023-04-16T13:11:08;20.08;;;12.75;;
79670;SDS011;69137;50.878;8.050;2023-04-16T13:13:34;17.67;;;11.57;;
79670;SDS011;69137;50.878;8.050;2023-04-16T13:15:59;20.83;;;12.85;;
79670;SDS011;69137;50.878;8.050;2023-04-16T13:18:25;17.60;;;11.65;;
79670;SDS011;69137;50.878;8.050;2023-04-16T13:20:52;22.13;;;13.30;;
79670;SDS011;69137;50.878;8.050;2023-04-16T13:23:18;19.08;;;11.95;;
79670;SDS011;69137;50.878;8.050;2023-04-16T13:25:44;19.90;;;11.60;;
79670;SDS011;69137;50.878;8.050;2023-04-16T13:28:09;20.48;;;13.30;;
79670;SDS011;69137;50.878;8.050;2023-04-16T13:30:35;22.98;;;12.38;;
79670;SDS011;69137;50.878;8.050;2023-04-16T13:33:00;22.35;;;13.38;;
79670;SDS011;69137;50.878;8.050;2023-04-16T13:35:29;20.15;;;13.10;;
79670;SDS011;69137;50.878;8.050;2023-04-16T13:37:54;22.30;;;13.00;;
79670;SDS011;69137;50.878;8.050;2023-04-16T13:40:20;20.45;;;13.77;;
79670;SDS011;69137;50.878;8.050;2023-04-16T13:42:45;22.05;;;15.45;;
79670;SDS011;69137;50.878;8.050;2023-04-16T13:45:11;23.92;;;14.15;;
79670;SDS011;69137;50.878;8.050;2023-04-16T13:47:39;23.67;;;13.68;;
79670;SDS011;69137;50.878;8.050;2023-04-16T13:50:08;24.00;;;14.60;;
79670;SDS011;69137;50.878;8.050;2023-04-16T13:52:34;21.88;;;13.32;;
79670;SDS011;69137;50.878;8.050;2023-04-16T13:55:00;21.60;;;12.88;;
79670;SDS011;69137;50.878;8.050;2023-04-16T13:57:26;21.67;;;13.20;;
79670;SDS011;69137;50.878;8.050;2023-04-16T13:59:52;21.63;;;13.70;;
79670;SDS011;69137;50.878;8.050;2023-04-16T14:02:18;23.70;;;16.08;;
79670;SDS011;69137;50.878;8.050;2023-04-16T14:04:44;23.27;;;14.80;;
79670;SDS011;69137;50.878;8.050;2023-04-16T14:07:10;20.13;;;13.15;;
79670;SDS011;69137;50.878;8.050;2023-04-16T14:09:36;18.90;;;11.63;;
79670;SDS011;69137;50.878;8.050;2023-04-16T14:12:01;22.45;;;13.13;;
79670;SDS011;69137;50.878;8.050;2023-04-16T14:14:26;22.95;;;14.68;;
79670;SDS011;69137;50.878;8.050;2023-04-16T14:16:56;24.33;;;15.68;;
79670;SDS011;69137;50.878;8.050;2023-04-16T14:19:24;23.60;;;14.65;;
79670;SDS011;69137;50.878;8.050;2023-04-16T14:21:49;24.77;;;14.40;;
79670;SDS011;69137;50.878;8.050;2023-04-16T14:24:15;21.98;;;15.48;;
79670;SDS011;69137;50.878;8.050;2023-04-16T14:26:44;28.00;;;15.38;;
79670;SDS011;69137;50.878;8.050;2023-04-16T14:29:09;31.75;;;17.90;;
79670;SDS011;69137;50.878;8.050;2023-04-16T14:31:35;26.73;;;16.50;;
79670;SDS011;69137;50.878;8.050;2023-04-16T14:34:01;30.23;;;16.98;;
79670;SDS011;69137;50.878;8.050;2023-04-16T14:36:26;25.05;;;15.85;;
79670;SDS011;69137;50.878;8.050;2023-04-16T14:38:52;24.58;;;14.98;;
79670;SDS011;69137;50.878;8.050;2023-04-16T14:41:17;25.50;;;14.95;;
79670;SDS011;69137;50.878;8.050;2023-04-16T14:43:43;22.30;;;14.63;;
79670;SDS011;69137;50.878;8.050;2023-04-16T14:46:09;23.88;;;14.90;;
79670;SDS011;69137;50.878;8.050;2023-04-16T14:48:34;23.73;;;15.10;;
79670;SDS011;69137;50.878;8.050;2023-04-16T14:51:00;23.00;;;14.95;;
79670;SDS011;69137;50.878;8.050;2023-04-16T14:53:25;24.42;;;14.77;;
79670;SDS011;69137;50.878;8.050;2023-04-16T14:55:51;23.98;;;15.45;;
79670;SDS011;69137;50.878;8.050;2023-04-16T14:58:17;25.10;;;15.52;;
79670;SDS011;69137;50.878;8.050;2023-04-16T15:00:42;29.65;;;16.77;;
79670;SDS011;69137;50.878;8.050;2023-04-16T15:03:08;24.92;;;15.57;;
79670;SDS011;69137;50.878;8.050;2023-04-16T15:05:34;25.15;;;14.18;;
79670;SDS011;69137;50.878;8.050;2023-04-16T15:08:00;21.40;;;12.77;;
79670;SDS011;69137;50.878;8.050;2023-04-16T15:10:26;25.20;;;13.27;;
79670;SDS011;69137;50.878;8.050;2023-04-16T15:12:51;26.65;;;14.32;;
79670;SDS011;69137;50.878;8.050;2023-04-16T15:15:20;24.10;;;14.00;;
79670;SDS011;69137;50.878;8.050;2023-04-16T15:17:45;21.35;;;12.10;;
79670;SDS011;69137;50.878;8.050;2023-04-16T15:20:13;20.90;;;13.05;;
79670;SDS011;69137;50.878;8.050;2023-04-16T15:22:39;19.38;;;12.15;;
79670;SDS011;69137;50.878;8.050;2023-04-16T15:25:05;20.58;;;12.73;;
79670;SDS011;69137;50.878;8.050;2023-04-16T15:27:31;20.23;;;12.38;;
79670;SDS011;69137;50.878;8.050;2023-04-16T15:29:56;19.60;;;13.27;;
79670;SDS011;69137;50.878;8.050;2023-04-16T15:32:22;20.33;;;11.75;;
79670;SDS011;69137;50.878;8.050;2023-04-16T15:34:47;20.27;;;11.55;;
79670;SDS011;69137;50.878;8.050;2023-04-16T15:37:13;19.83;;;12.80;;
79670;SDS011;69137;50.878;8.050;2023-04-16T15:39:40;19.95;;;11.55;;
79670;SDS011;69137;50.878;8.050;2023-04-16T15:42:05;20.00;;;12.20;;
79670;SDS011;69137;50.878;8.050;2023-04-16T15:44:32;19.98;;;11.85;;
79670;SDS011;69137;50.878;8.050;2023-04-16T15:46:57;20.65;;;12.48;;
79670;SDS011;69137;50.878;8.050;2023-04-16T15:49:24;22.48;;;11.88;;